createdAt,value
2023-08-02T00:00:26.351Z,90.63
2023-08-02T00:01:26.338Z,90.43
2023-08-02T00:02:27.643Z,90.63
2023-08-02T00:03:26.326Z,90.94
2023-08-02T00:04:26.318Z,90.73
2023-08-02T00:05:26.300Z,90.43
2023-08-02T00:06:26.357Z,90.53
2023-08-02T00:07:26.265Z,90.94
2023-08-02T00:08:26.252Z,91.34
2023-08-02T00:09:26.270Z,91.24
2023-08-02T00:10:26.232Z,91.34
2023-08-02T00:11:26.209Z,91.44
2023-08-02T00:12:26.196Z,91.54
2023-08-02T00:13:26.172Z,91.34
2023-08-02T00:14:26.177Z,91.34
2023-08-02T00:15:26.149Z,91.38
2023-08-02T00:16:26.173Z,91.18
2023-08-02T00:17:26.174Z,91.28
2023-08-02T00:18:26.118Z,91.18
2023-08-02T00:19:26.150Z,91.08
2023-08-02T00:20:26.097Z,91.58
2023-08-02T00:21:26.080Z,91.78
2023-08-02T00:22:26.047Z,91.99
2023-08-02T00:23:26.067Z,92.09
2023-08-02T00:24:26.030Z,92.09
2023-08-02T00:25:26.016Z,92.29
2023-08-02T00:26:26.005Z,92.19
2023-08-02T00:27:25.976Z,92.29
2023-08-02T00:28:25.980Z,92.19
2023-08-02T00:29:26.033Z,91.99
2023-08-02T00:30:26.008Z,92.19
2023-08-02T00:31:25.926Z,92.40
2023-08-02T00:32:25.989Z,92.29
2023-08-02T00:33:34.815Z,91.99
2023-08-02T00:34:25.880Z,91.99
2023-08-02T00:35:25.865Z,91.99
2023-08-02T00:36:25.875Z,91.99
2023-08-02T00:37:25.847Z,92.09
2023-08-02T00:38:25.838Z,92.09
2023-08-02T00:39:25.844Z,92.40
2023-08-02T00:40:25.804Z,92.09
2023-08-02T00:41:25.778Z,91.99
2023-08-02T00:42:25.772Z,91.78
2023-08-02T00:43:25.749Z,91.69
2023-08-02T00:44:25.759Z,91.78
2023-08-02T00:45:25.735Z,92.09
2023-08-02T00:46:25.764Z,92.05
2023-08-02T00:47:25.832Z,91.49
2023-08-02T00:48:25.700Z,91.38
2023-08-02T00:49:25.685Z,91.49
2023-08-02T00:50:25.653Z,91.34
2023-08-02T00:51:25.650Z,91.89
2023-08-02T00:52:25.648Z,91.99
2023-08-02T00:53:25.617Z,91.99
2023-08-02T00:54:25.644Z,91.99
2023-08-02T00:55:25.587Z,91.99
2023-08-02T00:56:25.583Z,91.99
2023-08-02T00:57:25.580Z,92.19
2023-08-02T00:58:25.602Z,91.89
2023-08-02T00:59:25.583Z,91.69
2023-08-02T01:00:25.536Z,91.78
2023-08-02T01:01:25.554Z,91.78
2023-08-02T01:02:25.548Z,91.78
2023-08-02T01:03:25.495Z,91.89
2023-08-02T01:04:25.494Z,91.69
2023-08-02T01:05:25.515Z,91.49
2023-08-02T01:06:25.578Z,91.69
2023-08-02T01:07:25.529Z,92.19
2023-08-02T01:08:25.436Z,92.40
2023-08-02T01:09:25.429Z,92.29
2023-08-02T01:10:25.446Z,92.49
2023-08-02T01:11:25.380Z,92.60
2023-08-02T01:12:25.410Z,92.29
2023-08-02T01:13:25.372Z,92.09
2023-08-02T01:14:25.343Z,92.19
2023-08-02T01:15:25.377Z,92.40
2023-08-02T01:16:32.676Z,92.40
2023-08-02T01:17:28.463Z,92.49
2023-08-02T01:18:25.317Z,92.69
2023-08-02T01:19:25.278Z,93.00
2023-08-02T01:20:25.278Z,93.00
2023-08-02T01:21:25.250Z,93.10
2023-08-02T01:22:25.251Z,93.20
2023-08-02T01:23:25.225Z,93.20
2023-08-02T01:24:25.241Z,93.20
2023-08-02T01:25:25.224Z,93.20
2023-08-02T01:26:25.205Z,93.20
2023-08-02T01:27:25.197Z,93.40
2023-08-02T01:28:25.159Z,93.60
2023-08-02T01:29:25.169Z,93.71
2023-08-02T01:30:25.150Z,93.81
2023-08-02T01:31:25.145Z,93.81
2023-08-02T01:32:25.167Z,94.01
2023-08-02T01:33:25.142Z,94.01
2023-08-02T01:34:25.088Z,94.11
2023-08-02T01:35:25.110Z,94.11
2023-08-02T01:36:25.042Z,93.91
2023-08-02T01:37:25.040Z,93.71
2023-08-02T01:38:25.039Z,93.51
2023-08-02T01:39:25.006Z,93.20
2023-08-02T01:40:25.027Z,93.30
2023-08-02T01:41:25.003Z,93.20
2023-08-02T01:42:24.982Z,93.00
2023-08-02T01:43:24.977Z,93.05
2023-08-02T01:44:24.958Z,93.26
2023-08-02T01:45:24.959Z,93.36
2023-08-02T01:46:24.923Z,93.26
2023-08-02T01:47:24.972Z,93.36
2023-08-02T01:48:24.917Z,93.46
2023-08-02T01:49:24.887Z,93.26
2023-08-02T01:50:26.252Z,93.16
2023-08-02T01:51:24.845Z,93.26
2023-08-02T01:52:24.846Z,93.36
2023-08-02T01:53:24.847Z,93.36
2023-08-02T01:54:24.831Z,93.26
2023-08-02T01:55:25.308Z,93.16
2023-08-02T01:56:24.800Z,93.05
2023-08-02T01:57:24.796Z,93.05
2023-08-02T01:58:24.769Z,92.96
2023-08-02T01:59:24.760Z,92.76
2023-08-02T02:00:24.758Z,92.76
2023-08-02T02:01:24.779Z,92.55
2023-08-02T02:02:24.768Z,92.45
2023-08-02T02:03:24.763Z,92.55
2023-08-02T02:04:24.688Z,92.65
2023-08-02T02:05:24.698Z,92.55
2023-08-02T02:06:24.693Z,92.65
2023-08-02T02:07:24.647Z,92.76
2023-08-02T02:08:24.641Z,92.76
2023-08-02T02:09:24.610Z,92.45
2023-08-02T02:10:24.654Z,92.55
2023-08-02T02:11:24.602Z,92.65
2023-08-02T02:12:24.604Z,93.05
2023-08-02T02:13:24.572Z,93.16
2023-08-02T02:14:24.584Z,93.26
2023-08-02T02:15:24.577Z,93.36
2023-08-02T02:16:24.547Z,93.46
2023-08-02T02:17:24.520Z,93.46
2023-08-02T02:18:24.530Z,93.56
2023-08-02T02:19:24.490Z,93.56
2023-08-02T02:20:24.490Z,93.56
2023-08-02T02:21:24.453Z,93.66
2023-08-02T02:22:24.524Z,93.36
2023-08-02T02:23:24.449Z,93.16
2023-08-02T02:24:24.416Z,93.26
2023-08-02T02:25:24.419Z,93.16
2023-08-02T02:26:24.419Z,93.26
2023-08-02T02:27:24.411Z,92.96
2023-08-02T02:28:24.450Z,92.45
2023-08-02T02:29:24.436Z,92.35
2023-08-02T02:30:24.426Z,92.45
2023-08-02T02:31:24.482Z,92.45
2023-08-02T02:32:24.388Z,92.76
2023-08-02T02:33:24.384Z,92.85
2023-08-02T02:34:24.300Z,92.85
2023-08-02T02:35:24.370Z,92.76
2023-08-02T02:36:24.344Z,92.55
2023-08-02T02:37:24.350Z,91.44
2023-08-02T02:38:24.370Z,91.14
2023-08-02T02:39:24.235Z,91.03
2023-08-02T02:40:24.221Z,91.14
2023-08-02T02:41:24.202Z,91.34
2023-08-02T02:42:24.198Z,91.44
2023-08-02T02:43:24.186Z,91.60
2023-08-02T02:44:24.159Z,91.90
2023-08-02T02:45:24.152Z,91.90
2023-08-02T02:46:24.215Z,91.90
2023-08-02T02:47:24.112Z,92.10
2023-08-02T02:48:24.180Z,92.10
2023-08-02T02:49:24.103Z,91.90
2023-08-02T02:50:24.110Z,92.00
2023-08-02T02:51:24.072Z,91.90
2023-08-02T02:52:24.080Z,91.60
2023-08-02T02:53:24.052Z,91.70
2023-08-02T02:54:24.043Z,91.70
2023-08-02T02:55:24.026Z,91.70
2023-08-02T02:56:24.001Z,92.00
2023-08-02T02:57:24.038Z,92.21
2023-08-02T02:58:23.983Z,92.00
2023-08-02T02:59:23.955Z,91.90
2023-08-02T03:00:23.983Z,91.80
2023-08-02T03:01:23.977Z,92.00
2023-08-02T03:02:24.028Z,91.80
2023-08-02T03:03:23.944Z,91.90
2023-08-02T03:04:23.924Z,91.80
2023-08-02T03:05:23.916Z,91.90
2023-08-02T03:06:23.920Z,92.10
2023-08-02T03:07:23.858Z,92.10
2023-08-02T03:08:23.841Z,92.10
2023-08-02T03:09:23.876Z,92.41
2023-08-02T03:10:23.836Z,92.30
2023-08-02T03:11:23.803Z,92.50
2023-08-02T03:12:23.838Z,92.30
2023-08-02T03:13:23.766Z,92.41
2023-08-02T03:14:23.767Z,92.50
2023-08-02T03:15:23.756Z,92.61
2023-08-02T03:16:23.825Z,92.61
2023-08-02T03:17:23.721Z,92.61
2023-08-02T03:18:23.752Z,92.81
2023-08-02T03:19:23.689Z,93.05
2023-08-02T03:20:23.710Z,93.01
2023-08-02T03:21:23.684Z,93.01
2023-08-02T03:22:23.652Z,92.85
2023-08-02T03:23:23.658Z,92.76
2023-08-02T03:24:23.645Z,93.05
2023-08-02T03:25:23.637Z,93.05
2023-08-02T03:26:23.607Z,93.05
2023-08-02T03:27:23.586Z,93.26
2023-08-02T03:28:23.589Z,93.36
2023-08-02T03:29:23.660Z,93.66
2023-08-02T03:30:23.600Z,93.66
2023-08-02T03:31:23.570Z,93.76
2023-08-02T03:32:23.563Z,93.87
2023-08-02T03:33:23.516Z,93.82
2023-08-02T03:34:23.502Z,93.96
2023-08-02T03:35:23.523Z,93.96
2023-08-02T03:36:23.483Z,94.07
2023-08-02T03:37:23.453Z,94.17
2023-08-02T03:38:23.478Z,94.27
2023-08-02T03:39:23.431Z,94.37
2023-08-02T03:40:23.442Z,94.37
2023-08-02T03:41:23.407Z,94.47
2023-08-02T03:42:23.414Z,94.37
2023-08-02T03:43:23.385Z,94.27
2023-08-02T03:44:23.371Z,94.37
2023-08-02T03:45:23.367Z,94.47
2023-08-02T03:46:23.410Z,94.47
2023-08-02T03:47:23.358Z,94.57
2023-08-02T03:48:23.304Z,94.47
2023-08-02T03:49:23.296Z,94.47
2023-08-02T03:50:23.298Z,94.37
2023-08-02T03:51:23.324Z,94.37
2023-08-02T03:52:23.261Z,94.37
2023-08-02T03:53:23.235Z,94.57
2023-08-02T03:54:23.226Z,94.67
2023-08-02T03:55:23.237Z,94.67
2023-08-02T03:56:23.269Z,94.57
2023-08-02T03:57:23.186Z,94.67
2023-08-02T03:58:23.185Z,94.87
2023-08-02T03:59:23.185Z,94.87
2023-08-02T04:00:23.175Z,94.87
2023-08-02T04:01:23.155Z,94.87
2023-08-02T04:02:23.204Z,95.07
2023-08-02T04:03:23.106Z,95.18
2023-08-02T04:04:23.177Z,95.28
2023-08-02T04:05:23.101Z,95.38
2023-08-02T04:06:23.182Z,95.38
2023-08-02T04:07:23.074Z,95.43
2023-08-02T04:08:23.094Z,95.63
2023-08-02T04:09:23.037Z,95.53
2023-08-02T04:10:23.052Z,95.63
2023-08-02T04:11:23.009Z,95.63
2023-08-02T04:12:22.993Z,95.63
2023-08-02T04:13:23.023Z,95.83
2023-08-02T04:14:22.968Z,95.83
2023-08-02T04:15:22.980Z,95.83
2023-08-02T04:16:22.969Z,95.83
2023-08-02T04:17:22.952Z,95.83
2023-08-02T04:18:22.910Z,95.93
2023-08-02T04:19:22.915Z,95.83
2023-08-02T04:20:22.907Z,95.83
2023-08-02T04:21:22.869Z,95.93
2023-08-02T04:22:22.902Z,95.83
2023-08-02T04:23:22.835Z,95.83
2023-08-02T04:24:22.838Z,95.89
2023-08-02T04:25:22.841Z,95.93
2023-08-02T04:26:22.819Z,95.98
2023-08-02T04:27:22.788Z,95.98
2023-08-02T04:28:22.764Z,95.98
2023-08-02T04:29:22.766Z,95.98
2023-08-02T04:30:22.758Z,95.98
2023-08-02T04:31:22.842Z,96.09
2023-08-02T04:32:22.769Z,95.98
2023-08-02T04:33:22.851Z,96.09
2023-08-02T04:34:22.757Z,96.09
2023-08-02T04:35:22.715Z,95.98
2023-08-02T04:36:22.662Z,96.09
2023-08-02T04:37:22.688Z,96.09
2023-08-02T04:38:22.662Z,96.09
2023-08-02T04:39:22.649Z,96.29
2023-08-02T04:40:22.660Z,96.29
2023-08-02T04:41:22.612Z,96.19
2023-08-02T04:42:22.597Z,96.19
2023-08-02T04:43:22.568Z,96.49
2023-08-02T04:44:22.563Z,96.59
2023-08-02T04:45:22.602Z,96.80
2023-08-02T04:46:22.577Z,96.89
2023-08-02T04:47:22.556Z,97.00
2023-08-02T04:48:22.540Z,97.30
2023-08-02T04:49:22.521Z,97.30
2023-08-02T04:50:22.565Z,97.55
2023-08-02T04:51:22.516Z,97.75
2023-08-02T04:52:23.988Z,97.85
2023-08-02T04:53:22.458Z,98.05
2023-08-02T04:54:22.429Z,98.16
2023-08-02T04:55:22.453Z,98.05
2023-08-02T04:56:22.439Z,98.25
2023-08-02T04:57:22.438Z,98.25
2023-08-02T04:58:22.419Z,98.25
2023-08-02T04:59:22.388Z,98.36
2023-08-02T05:00:22.350Z,98.36
2023-08-02T05:01:22.395Z,98.46
2023-08-02T05:02:22.347Z,98.56
2023-08-02T05:03:22.341Z,98.56
2023-08-02T05:04:22.310Z,98.56
2023-08-02T05:05:22.297Z,98.66
2023-08-02T05:06:22.351Z,98.66
2023-08-02T05:07:22.277Z,98.66
2023-08-02T05:08:22.261Z,98.66
2023-08-02T05:09:22.277Z,98.66
2023-08-02T05:10:22.229Z,98.66
2023-08-02T05:11:22.224Z,98.76
2023-08-02T05:12:22.225Z,98.76
2023-08-02T05:13:22.185Z,98.76
2023-08-02T05:14:22.166Z,98.86
2023-08-02T05:15:22.177Z,98.86
2023-08-02T05:16:22.163Z,98.86
2023-08-02T05:17:22.139Z,98.96
2023-08-02T05:18:22.117Z,98.96
2023-08-02T05:19:22.105Z,99.02
2023-08-02T05:20:22.082Z,98.96
2023-08-02T05:21:22.099Z,98.96
2023-08-02T05:22:22.070Z,99.02
2023-08-02T05:23:22.074Z,99.07
2023-08-02T05:24:22.034Z,99.02
2023-08-02T05:25:22.024Z,98.92
2023-08-02T05:26:22.023Z,99.02
2023-08-02T05:27:21.996Z,98.92
2023-08-02T05:28:22.001Z,98.92
2023-08-02T05:29:21.986Z,98.71
2023-08-02T05:30:21.986Z,98.61
2023-08-02T05:31:22.063Z,98.71
2023-08-02T05:32:21.927Z,98.71
2023-08-02T05:33:21.920Z,98.71
2023-08-02T05:34:21.903Z,98.71
2023-08-02T05:35:21.904Z,98.82
2023-08-02T05:36:21.907Z,98.92
2023-08-02T05:37:21.870Z,98.92
2023-08-02T05:38:21.880Z,98.92
2023-08-02T05:39:21.846Z,98.92
2023-08-02T05:40:21.833Z,99.02
2023-08-02T05:41:21.846Z,99.12
2023-08-02T05:42:21.795Z,99.22
2023-08-02T05:43:21.790Z,99.22
2023-08-02T05:44:21.798Z,99.22
2023-08-02T05:45:21.865Z,99.42
2023-08-02T05:46:21.809Z,99.42
2023-08-02T05:47:21.776Z,99.52
2023-08-02T05:48:21.728Z,99.62
2023-08-02T05:49:21.704Z,99.62
2023-08-02T05:50:21.751Z,99.83
2023-08-02T05:51:21.701Z,99.83
2023-08-02T05:52:21.664Z,99.93
2023-08-02T05:53:21.653Z,99.93
2023-08-02T05:54:21.633Z,99.99
2023-08-02T05:55:21.620Z,99.99
2023-08-02T05:56:21.631Z,99.99
2023-08-02T05:57:21.605Z,99.99
2023-08-02T05:58:21.581Z,99.99
2023-08-02T05:59:21.570Z,99.99
2023-08-02T06:00:21.549Z,99.99
2023-08-02T06:01:21.622Z,99.98
2023-08-02T06:02:21.600Z,99.99
2023-08-02T06:03:21.545Z,99.99
2023-08-02T06:04:21.600Z,99.99
2023-08-02T06:05:21.520Z,99.99
2023-08-02T06:06:21.553Z,99.99
2023-08-02T06:07:21.484Z,99.99
2023-08-02T06:08:21.447Z,99.99
2023-08-02T06:09:21.461Z,99.99
2023-08-02T06:10:21.463Z,99.99
2023-08-02T06:11:21.423Z,99.99
2023-08-02T06:12:21.420Z,99.99
2023-08-02T06:13:21.404Z,99.99
2023-08-02T06:14:21.401Z,99.99
2023-08-02T06:15:21.372Z,99.99
2023-08-02T06:16:21.403Z,99.99
2023-08-02T06:17:21.330Z,99.99
2023-08-02T06:18:21.323Z,99.99
2023-08-02T06:19:21.329Z,99.99
2023-08-02T06:20:21.314Z,99.99
2023-08-02T06:21:21.337Z,99.99
2023-08-02T06:22:21.280Z,99.99
2023-08-02T06:23:21.263Z,99.99
2023-08-02T06:24:21.255Z,99.99
2023-08-02T06:25:21.246Z,99.99
2023-08-02T06:26:21.277Z,99.99
2023-08-02T06:27:21.235Z,99.99
2023-08-02T06:28:21.199Z,99.99
2023-08-02T06:29:21.182Z,99.99
2023-08-02T06:30:21.151Z,99.99
2023-08-02T06:31:21.240Z,99.99
2023-08-02T06:32:21.138Z,99.99
2023-08-02T06:33:21.143Z,99.99
2023-08-02T06:38:58.854Z,99.99
2023-08-02T06:39:58.137Z,99.99
2023-08-02T06:40:58.104Z,99.99
2023-08-02T06:41:58.044Z,99.99
2023-08-02T06:42:58.004Z,99.99
2023-08-02T06:43:58.023Z,99.99
2023-08-02T06:44:57.991Z,99.99
2023-08-02T06:45:58.119Z,99.99
2023-08-02T06:46:58.166Z,99.99
2023-08-02T06:47:58.012Z,99.99
2023-08-02T06:48:58.106Z,99.99
2023-08-02T06:49:57.932Z,99.99
2023-08-02T06:50:57.931Z,99.99
2023-08-02T06:51:57.876Z,99.99
2023-08-02T06:53:12.224Z,99.99
2023-08-02T06:54:11.213Z,99.99
2023-08-02T06:54:58.016Z,99.99
2023-08-02T06:57:21.874Z,99.99
2023-08-02T06:58:34.917Z,99.99
2023-08-02T06:59:34.214Z,99.99
2023-08-02T07:00:21.565Z,99.99
2023-08-02T07:01:21.712Z,99.99
2023-08-02T07:03:58.688Z,99.99
2023-08-02T07:04:58.590Z,99.99
2023-08-02T07:05:58.652Z,99.99
2023-08-02T07:06:58.485Z,99.99
2023-08-02T07:07:58.543Z,99.99
2023-08-02T07:08:58.532Z,99.99
2023-08-02T07:09:58.642Z,99.99
2023-08-02T07:10:59.497Z,99.99
2023-08-02T07:12:10.304Z,99.99
2023-08-02T07:12:58.693Z,99.99
2023-08-02T07:15:20.405Z,99.99
2023-08-02T07:16:19.966Z,99.99
2023-08-02T07:17:19.799Z,99.99
2023-08-02T07:18:19.706Z,99.99
2023-08-02T07:20:38.102Z,99.99
2023-08-02T07:21:50.552Z,99.99
2023-08-02T07:22:49.232Z,99.99
2023-08-02T07:24:54.878Z,99.99
2023-08-02T07:25:55.351Z,99.99
2023-08-02T07:26:54.043Z,99.99
2023-08-02T07:28:04.215Z,99.99
2023-08-02T07:28:53.853Z,99.99
2023-08-02T07:29:53.874Z,99.99
2023-08-02T07:31:04.034Z,99.99
2023-08-02T07:31:53.910Z,99.99
2023-08-02T07:32:53.862Z,99.99
2023-08-02T07:33:53.818Z,99.99
2023-08-02T07:34:54.634Z,99.99
2023-08-02T07:35:54.136Z,99.99
2023-08-02T07:36:53.814Z,99.99
2023-08-02T07:37:53.845Z,99.99
2023-08-02T07:38:54.753Z,99.99
2023-08-02T07:39:53.836Z,99.99
2023-08-02T07:40:53.751Z,99.99
2023-08-02T07:41:53.710Z,99.99
2023-08-02T07:42:53.778Z,99.99
2023-08-02T07:43:53.699Z,99.99
2023-08-02T07:44:53.789Z,99.99
2023-08-02T07:45:53.919Z,99.99
2023-08-02T07:46:53.824Z,99.99
2023-08-02T07:47:53.670Z,99.99
2023-08-02T07:49:05.212Z,99.99
2023-08-02T07:50:06.205Z,99.99
2023-08-02T07:51:03.151Z,99.99
2023-08-02T07:51:53.639Z,99.99
2023-08-02T07:52:53.920Z,99.99
2023-08-02T07:53:53.633Z,99.99
2023-08-02T07:54:56.490Z,99.99
2023-08-02T07:55:53.606Z,99.99
2023-08-02T07:56:53.700Z,99.99
2023-08-02T07:57:53.524Z,99.99
2023-08-02T07:58:54.056Z,99.99
2023-08-02T08:00:02.038Z,99.99
2023-08-02T08:02:19.925Z,99.99
2023-08-02T08:05:53.137Z,99.99
2023-08-02T08:06:53.253Z,99.99
2023-08-02T08:07:53.715Z,99.99
2023-08-02T08:08:53.028Z,99.79
2023-08-02T08:09:53.051Z,99.99
2023-08-02T08:10:52.998Z,99.65
2023-08-02T08:12:03.559Z,99.19
2023-08-02T08:12:53.177Z,99.14
2023-08-02T08:13:52.916Z,99.24
2023-08-02T08:14:52.848Z,98.94
2023-08-02T08:15:52.846Z,99.04
2023-08-02T08:16:52.991Z,98.94
2023-08-02T08:17:52.931Z,98.84
2023-08-02T08:18:52.805Z,98.74
2023-08-02T08:19:52.810Z,98.64
2023-08-02T08:20:52.792Z,98.64
2023-08-02T08:22:01.629Z,98.49
2023-08-02T08:22:52.955Z,98.59
2023-08-02T08:25:11.850Z,99.10
2023-08-02T08:26:23.892Z,98.90
2023-08-02T08:29:19.487Z,98.13
2023-08-02T08:31:56.298Z,97.93
2023-08-02T08:34:59.676Z,98.13
2023-08-02T08:38:24.479Z,98.74
2023-08-02T08:41:06.609Z,98.84
2023-08-02T08:50:40.108Z,98.33
2023-08-02T08:51:12.766Z,98.13
2023-08-02T08:52:21.637Z,98.13
2023-08-02T08:54:52.648Z,98.64
2023-08-02T08:55:52.567Z,98.84
2023-08-02T08:56:52.530Z,98.74
2023-08-02T08:58:18.540Z,98.64
2023-08-02T08:59:03.232Z,98.54
2023-08-02T08:59:53.176Z,98.74
2023-08-02T09:01:01.707Z,98.64
2023-08-02T09:03:49.199Z,99.14
2023-08-02T09:14:08.619Z,99.99
2023-08-02T09:15:11.289Z,99.99
2023-08-02T09:16:03.005Z,99.99
2023-08-02T09:17:00.538Z,99.99
2023-08-02T09:18:01.593Z,99.99
2023-08-02T09:19:00.381Z,99.99
2023-08-02T09:20:00.396Z,99.99
2023-08-02T09:24:39.465Z,99.99
2023-08-02T09:25:29.719Z,99.99
2023-08-02T09:26:27.052Z,99.99
2023-08-02T09:27:29.713Z,99.99
2023-08-02T09:28:28.944Z,99.99
2023-08-02T09:29:27.442Z,99.99
2023-08-02T09:30:27.741Z,99.99
2023-08-02T09:31:27.661Z,99.99
2023-08-02T09:32:49.265Z,99.99
2023-08-02T09:33:26.922Z,99.99
2023-08-02T09:34:26.893Z,99.99
2023-08-02T09:35:26.910Z,99.99
2023-08-02T09:36:35.470Z,99.99
2023-08-02T09:37:26.990Z,99.99
2023-08-02T09:38:26.987Z,99.99
2023-08-02T09:39:27.203Z,99.99
2023-08-02T09:40:27.833Z,99.96
2023-08-02T09:42:28.249Z,99.99
2023-08-02T09:43:27.399Z,99.96
2023-08-02T09:44:27.805Z,99.66
2023-08-02T09:45:27.332Z,99.46
2023-08-02T09:46:27.527Z,99.31
2023-08-02T09:47:26.896Z,99.41
2023-08-02T09:48:32.730Z,99.31
2023-08-02T09:49:27.634Z,99.21
2023-08-02T09:50:27.920Z,99.01
2023-08-02T09:51:27.431Z,98.71
2023-08-02T09:52:26.691Z,98.30
2023-08-02T09:53:27.681Z,98.00
2023-08-02T09:54:27.328Z,98.30
2023-08-02T09:55:27.918Z,98.50
2023-08-02T09:56:27.404Z,98.40
2023-08-02T09:57:27.108Z,98.50
2023-08-02T09:58:31.615Z,98.40
2023-08-02T09:59:26.758Z,98.20
2023-08-02T10:00:26.861Z,97.90
2023-08-02T10:01:48.381Z,97.80
2023-08-02T10:02:32.119Z,98.00
2023-08-02T10:03:27.443Z,98.00
2023-08-02T10:04:31.448Z,98.10
2023-08-02T10:05:28.909Z,97.80
2023-08-02T10:06:27.000Z,97.70
2023-08-02T10:07:26.798Z,97.80
2023-08-02T10:08:26.577Z,97.95
2023-08-02T10:09:26.451Z,98.15
2023-08-02T10:10:26.460Z,98.50
2023-08-02T10:11:26.399Z,98.50
2023-08-02T10:12:26.391Z,98.50
2023-08-02T10:13:26.415Z,98.45
2023-08-02T10:14:26.396Z,98.50
2023-08-02T10:15:26.480Z,98.71
2023-08-02T10:16:26.343Z,98.80
2023-08-02T10:17:26.346Z,99.01
2023-08-02T10:18:26.452Z,99.21
2023-08-02T10:19:26.436Z,99.31
2023-08-02T10:20:26.320Z,99.11
2023-08-02T10:21:26.411Z,99.31
2023-08-02T10:22:28.099Z,99.31
2023-08-02T10:23:27.039Z,99.31
2023-08-02T10:24:29.275Z,99.26
2023-08-02T10:25:58.050Z,99.26
2023-08-02T10:26:28.525Z,99.26
2023-08-02T10:27:32.026Z,99.21
2023-08-02T10:28:32.760Z,99.31
2023-08-02T10:29:26.823Z,99.41
2023-08-02T10:30:29.574Z,99.51
2023-08-02T10:31:29.922Z,99.51
2023-08-02T10:32:26.577Z,99.31
2023-08-02T10:33:30.625Z,99.46
2023-08-02T10:34:26.721Z,99.66
2023-08-02T10:35:26.141Z,99.56
2023-08-02T10:36:26.852Z,99.66
2023-08-02T10:37:26.671Z,99.46
2023-08-02T10:38:27.262Z,99.16
2023-08-02T10:39:26.508Z,98.56
2023-08-02T10:40:26.146Z,98.46
2023-08-02T10:41:26.586Z,98.66
2023-08-02T10:42:26.274Z,98.76
2023-08-02T10:43:26.754Z,98.86
2023-08-02T10:44:26.742Z,98.66
2023-08-02T10:45:27.358Z,98.36
2023-08-02T10:46:26.141Z,98.05
2023-08-02T10:47:26.053Z,98.05
2023-08-02T10:48:25.989Z,98.25
2023-08-02T10:49:25.992Z,98.31
2023-08-02T10:50:26.104Z,98.51
2023-08-02T10:51:25.992Z,98.86
2023-08-02T10:52:26.011Z,98.77
2023-08-02T10:53:25.912Z,98.66
2023-08-02T10:54:25.899Z,98.57
2023-08-02T10:55:25.929Z,98.32
2023-08-02T10:56:25.934Z,98.02
2023-08-02T10:57:25.850Z,97.52
2023-08-02T10:58:25.799Z,97.61
2023-08-02T10:59:25.861Z,98.07
2023-08-02T11:00:25.837Z,97.21
2023-08-02T11:01:25.816Z,96.71
2023-08-02T11:02:25.904Z,96.51
2023-08-02T11:03:25.826Z,96.21
2023-08-02T11:04:25.944Z,96.41
2023-08-02T11:05:25.852Z,96.11
2023-08-02T11:06:25.786Z,96.01
2023-08-02T11:07:25.833Z,96.26
2023-08-02T11:08:25.744Z,96.47
2023-08-02T11:09:25.666Z,96.77
2023-08-02T11:10:25.730Z,96.87
2023-08-02T11:11:25.719Z,96.77
2023-08-02T11:12:26.331Z,96.87
2023-08-02T11:13:25.731Z,96.87
2023-08-02T11:14:25.631Z,97.06
2023-08-02T11:15:25.568Z,97.17
2023-08-02T11:16:26.577Z,97.37
2023-08-02T11:19:25.898Z,98.17
2023-08-02T11:20:25.672Z,98.47
2023-08-02T11:21:25.773Z,98.67
2023-08-02T11:22:25.520Z,98.77
2023-08-02T11:23:25.489Z,98.77
2023-08-02T11:24:29.449Z,98.72
2023-08-02T11:26:25.534Z,98.72
2023-08-02T11:28:26.679Z,98.62
2023-08-02T11:29:25.662Z,98.62
2023-08-02T11:30:30.405Z,98.62
2023-08-02T11:31:26.611Z,98.57
2023-08-02T11:32:25.549Z,98.87
2023-08-02T11:33:25.568Z,99.33
2023-08-02T11:34:25.402Z,99.33
2023-08-02T11:35:25.492Z,99.33
2023-08-02T11:36:25.424Z,99.02
2023-08-02T11:37:25.519Z,98.93
2023-08-02T11:38:27.510Z,98.72
2023-08-02T11:39:25.493Z,98.38
2023-08-02T11:40:27.423Z,98.18
2023-08-02T11:41:25.323Z,97.88
2023-08-02T11:42:25.241Z,97.97
2023-08-02T11:43:25.358Z,97.88
2023-08-02T11:44:25.255Z,97.97
2023-08-02T11:45:25.375Z,97.67
2023-08-02T11:46:25.461Z,97.58
2023-08-02T11:47:25.211Z,97.43
2023-08-02T11:48:25.273Z,97.33
2023-08-02T11:49:25.352Z,96.73
2023-08-02T11:50:25.157Z,96.03
2023-08-02T11:51:25.090Z,95.73
2023-08-02T11:52:25.117Z,96.03
2023-08-02T11:53:25.767Z,96.03
2023-08-02T11:54:25.091Z,95.53
2023-08-02T11:55:25.057Z,95.23
2023-08-02T11:56:25.041Z,95.38
2023-08-02T11:57:25.734Z,95.28
2023-08-02T11:58:25.039Z,94.78
2023-08-02T11:59:25.106Z,94.48
2023-08-02T12:00:25.063Z,94.08
2023-08-02T12:01:25.291Z,93.98
2023-08-02T12:02:25.360Z,94.08
2023-08-02T12:03:24.993Z,94.58
2023-08-02T12:04:25.029Z,94.48
2023-08-02T12:05:24.914Z,94.68
2023-08-02T12:06:25.003Z,94.38
2023-08-02T12:07:24.879Z,94.28
2023-08-02T12:08:24.895Z,94.48
2023-08-02T12:09:24.855Z,93.98
2023-08-02T12:10:24.890Z,93.98
2023-08-02T12:11:24.875Z,94.58
2023-08-02T12:12:24.824Z,94.68
2023-08-02T12:13:24.818Z,94.58
2023-08-02T12:14:24.817Z,94.88
2023-08-02T12:15:24.789Z,95.08
2023-08-02T12:16:24.779Z,95.28
2023-08-02T12:17:24.947Z,95.18
2023-08-02T12:18:24.794Z,95.08
2023-08-02T12:19:24.854Z,94.98
2023-08-02T12:20:24.719Z,95.08
2023-08-02T12:21:24.727Z,94.98
2023-08-02T12:22:24.712Z,94.78
2023-08-02T12:23:24.698Z,94.68
2023-08-02T12:24:24.661Z,94.43
2023-08-02T12:25:24.731Z,94.43
2023-08-02T12:26:24.637Z,94.04
2023-08-02T12:27:24.634Z,93.84
2023-08-02T12:28:24.663Z,93.43
2023-08-02T12:29:24.734Z,93.29
2023-08-02T12:30:24.658Z,93.39
2023-08-02T12:31:24.727Z,93.69
2023-08-02T12:32:24.599Z,93.09
2023-08-02T12:33:24.636Z,92.89
2023-08-02T12:34:24.596Z,92.75
2023-08-02T12:35:24.511Z,92.09
2023-08-02T12:36:24.620Z,91.89
2023-08-02T12:37:24.511Z,92.39
2023-08-02T12:38:24.722Z,92.29
2023-08-02T12:39:24.516Z,92.65
2023-08-02T12:40:24.550Z,93.19
2023-08-02T12:41:24.502Z,93.19
2023-08-02T12:42:24.478Z,93.39
2023-08-02T12:43:24.542Z,93.59
2023-08-02T12:44:24.415Z,92.19
2023-08-02T12:45:24.512Z,91.19
2023-08-02T12:46:24.482Z,89.33
2023-08-02T12:47:24.408Z,88.73
2023-08-02T12:48:24.543Z,89.82
2023-08-02T12:49:24.504Z,91.16
2023-08-02T12:50:27.152Z,92.31
2023-08-02T12:51:24.361Z,93.11
2023-08-02T12:52:24.393Z,94.26
2023-08-02T12:54:40.672Z,95.81
2023-08-02T12:55:40.659Z,95.81
2023-08-02T12:56:40.902Z,95.91
2023-08-02T12:57:40.667Z,96.01
2023-08-02T12:58:40.684Z,96.31
2023-08-02T12:59:40.621Z,96.71
2023-08-02T13:00:40.582Z,96.31
2023-08-02T13:01:40.630Z,95.81
2023-08-02T13:02:40.598Z,95.71
2023-08-02T13:03:40.671Z,95.21
2023-08-02T13:04:40.542Z,95.31
2023-08-02T13:05:40.511Z,95.97
2023-08-02T13:06:47.202Z,94.86
2023-08-02T13:07:44.511Z,94.96
2023-08-02T13:08:40.500Z,95.56
2023-08-02T13:09:40.465Z,94.66
2023-08-02T13:10:40.468Z,93.26
2023-08-02T13:11:40.461Z,93.62
2023-08-02T13:12:40.432Z,92.55
2023-08-02T13:13:40.432Z,93.16
2023-08-02T13:14:40.454Z,92.35
2023-08-02T13:15:40.464Z,91.85
2023-08-02T13:16:40.691Z,92.46
2023-08-02T13:17:40.404Z,93.55
2023-08-02T13:18:40.360Z,92.50
2023-08-02T13:19:40.346Z,93.30
2023-08-02T13:20:40.315Z,93.90
2023-08-02T13:21:40.317Z,93.90
2023-08-02T13:22:40.293Z,94.31
2023-08-02T13:23:40.314Z,94.60
2023-08-02T13:24:40.272Z,94.45
2023-08-02T13:25:40.268Z,94.75
2023-08-02T13:26:40.426Z,95.05
2023-08-02T13:27:40.230Z,94.35
2023-08-02T13:28:40.236Z,94.15
2023-08-02T13:29:40.238Z,94.71
2023-08-02T13:30:40.193Z,94.71
2023-08-02T13:31:40.207Z,95.21
2023-08-02T13:32:40.975Z,95.01
2023-08-02T13:33:40.180Z,94.71
2023-08-02T13:34:40.134Z,94.71
2023-08-02T13:35:40.162Z,94.40
2023-08-02T13:36:40.660Z,95.10
2023-08-02T13:37:40.183Z,94.66
2023-08-02T13:38:40.114Z,94.06
2023-08-02T13:39:40.096Z,94.16
2023-08-02T13:40:40.062Z,94.56
2023-08-02T13:41:40.054Z,94.31
2023-08-02T13:42:40.075Z,93.81
2023-08-02T13:43:40.056Z,93.71
2023-08-02T13:44:40.038Z,94.21
2023-08-02T13:45:40.096Z,93.81
2023-08-02T13:46:40.286Z,93.62
2023-08-02T13:47:40.012Z,93.62
2023-08-02T13:48:39.998Z,93.01
2023-08-02T13:49:39.951Z,93.21